Havre de Grace, Maryland
Current Conditions -  °F | °C
As of 6:45 AM on Thursday 27 Nov 2014 (Local Time) from KMTN Reporting Station
Broken Clouds Broken Clouds  
Wind Chill: 32°   Ceiling: 6500
Heat Index: 37°   Visibility: 10mi
Dew Point: 34°   Wind: 7mph
Humidity: 87%   Direction: 270°W
Pressure: 30.05"   Gusts: NA
Location:  39.55°N, 76.1°W
Report Text: KMTN 271145Z 27006KT 10SM BKN065 BKN1500 03/01 A3005
Loading
Personal Weather Stations






























Interactive Weather Map New forecast layout! Learn more

10-Day Weather Forecast

Advertisements
Track Severe Weather on mobile